Time;durP1;ratioP1;P1;durP2;ratioP2;P2;SDS_P1;SDS_P2;PMS_P1;PMS_P2;Temp;Humidity;BMP_temperature;BMP_pressure;BME280_temperature;BME280_humidity;BME280_pressure;Samples;Min_cycle;Max_cycle;Signal;HPM_P1;HPM_P2
2022/11/18 00:01:29;;;;;;;;;;;;;;;;;;5093621;28;19927;-72
2022/11/18 00:03:55;;;;;;;;;;;;;;;;;;5093594;28;19938;-71
2022/11/18 00:06:21;;;;;;;;;;;;;;;;;;5092141;28;19920;-70
2022/11/18 00:08:47;;;;;;;;;;;;;;;;;;5093133;28;19920;-72
2022/11/18 00:16:43;;;;;;;;;;;;;;;;;;5092548;28;19927;-73
2022/11/18 00:19:08;;;;;;;;;;;;;;;;;;5090854;28;19920;-72
2022/11/18 00:21:34;;;;;;;;;;;;;;;;;;5095455;28;20385;-72
2022/11/18 00:24:00;;;;;;;;;;;;;;;;;;5091354;28;19928;-74
2022/11/18 00:26:26;;;;;;;;;;;;;;;;;;5093005;28;20014;-74
2022/11/18 00:28:52;;;;;;;;;;;;;;;;;;5075249;28;20020;-74
2022/11/18 00:31:18;;;;;;;;;;;;;;;;;;5093190;28;19972;-74
2022/11/18 00:33:44;;;;;;;;;;;;;;;;;;5093937;28;19937;-71
2022/11/18 00:36:10;;;;;;;;;;;;;;;;;;5092067;28;19924;-71
2022/11/18 00:38:36;;;;;;;;;;;;;;;;;;5090846;28;19920;-71
2022/11/18 00:41:01;;;;;;;;;;;;;;;;;;5092179;28;19920;-70
2022/11/18 00:43:27;;;;;;;;;;;;;;;;;;5092200;28;19920;-71
2022/11/18 00:45:53;;;;;;;;;;;;;;;;;;5091018;28;19916;-71
2022/11/18 00:48:20;;;;;;;;;;;;;;;;;;5091040;28;19927;-70
2022/11/18 00:50:46;;;;;;;;;;;;;;;;;;5090793;28;19924;-70
2022/11/18 00:53:12;;;;;;;;;;;;;;;;;;5093182;28;19920;-70
2022/11/18 00:55:38;;;;;;;;;;;;;;;;;;5081387;28;19927;-71
2022/11/18 00:58:04;;;;;;;;;;;;;;;;;;5091935;28;19985;-70
2022/11/18 01:00:30;;;;;;;;;;;;;;;;;;5092919;28;20003;-70
2022/11/18 01:02:55;;;;;;;;;;;;;;;;;;5090391;28;19920;-72
2022/11/18 01:05:21;;;;;;;;;;;;;;;;;;5090868;28;19919;-70
2022/11/18 01:07:47;;;;;;;;;;;;;;;;;;5091309;28;19935;-70
2022/11/18 01:10:13;;;;;;;;;;;;;;;;;;5092255;28;19924;-70
2022/11/18 01:15:24;;;;;;;;;;;;;;;;;;5109781;28;19927;-70
2022/11/18 01:17:50;;;;;;;;;;;;;;;;;;5092576;28;19924;-71
2022/11/18 01:20:16;;;;;;;;;;;;;;;;;;5091505;28;20354;-71
2022/11/18 01:22:42;;;;;;;;;;;;;;;;;;5073082;28;19974;-71
2022/11/18 01:25:08;;;;;;;;;;;;;;;;;;5090355;28;20011;-71
2022/11/18 01:27:33;;;;;;;;;;;;;;;;;;5090650;28;20373;-71
2022/11/18 01:29:59;;;;;;;;;;;;;;;;;;5093262;28;19935;-71
2022/11/18 01:32:25;;;;;;;;;;;;;;;;;;5112658;28;19920;-71
2022/11/18 01:34:51;;;;;;;;;;;;;;;;;;5063015;28;20402;-71
2022/11/18 01:37:17;;;;;;;;;;;;;;;;;;5091643;28;19920;-71
2022/11/18 01:39:43;;;;;;;;;;;;;;;;;;5074665;28;20262;-71
2022/11/18 01:42:09;;;;;;;;;;;;;;;;;;5089690;28;19970;-71
2022/11/18 01:44:35;;;;;;;;;;;;;;;;;;5090166;28;19971;-71
2022/11/18 01:47:01;;;;;;;;;;;;;;;;;;5074024;28;20373;-70
2022/11/18 01:49:27;;;;;;;;;;;;;;;;;;5089992;28;19930;-71
2022/11/18 01:51:53;;;;;;;;;;;;;;;;;;5074557;28;19920;-71
2022/11/18 01:54:19;;;;;;;;;;;;;;;;;;5090440;28;19920;-71
2022/11/18 01:56:44;;;;;;;;;;;;;;;;;;5090886;28;19975;-71
2022/11/18 01:59:10;;;;;;;;;;;;;;;;;;5092204;28;20301;-70
2022/11/18 02:01:36;;;;;;;;;;;;;;;;;;5090762;28;19927;-71
2022/11/18 02:04:02;;;;;;;;;;;;;;;;;;5100114;28;19927;-71
2022/11/18 02:06:28;;;;;;;;;;;;;;;;;;5087021;28;19927;-71
2022/11/18 02:08:54;;;;;;;;;;;;;;;;;;5097400;28;19921;-71
2022/11/18 02:14:04;;;;;;;;;;;;;;;;;;5078974;28;19931;-71
2022/11/18 02:16:30;;;;;;;;;;;;;;;;;;5073871;28;19920;-71
2022/11/18 02:18:56;;;;;;;;;;;;;;;;;;5089984;28;20335;-71
2022/11/18 02:21:22;;;;;;;;;;;;;;;;;;5073314;28;19973;-71
2022/11/18 02:23:48;;;;;;;;;;;;;;;;;;5091308;28;19982;-70
2022/11/18 02:26:14;;;;;;;;;;;;;;;;;;5090469;28;19924;-71
2022/11/18 02:28:40;;;;;;;;;;;;;;;;;;5091078;28;19924;-71
2022/11/18 02:31:06;;;;;;;;;;;;;;;;;;5073546;28;20427;-71
2022/11/18 02:33:32;;;;;;;;;;;;;;;;;;5091239;28;19969;-71
2022/11/18 02:35:58;;;;;;;;;;;;;;;;;;5089845;28;19920;-71
2022/11/18 02:38:23;;;;;;;;;;;;;;;;;;5087735;28;20010;-71
2022/11/18 02:40:49;;;;;;;;;;;;;;;;;;5085201;28;19928;-71
2022/11/18 02:43:15;;;;;;;;;;;;;;;;;;5091385;28;20369;-71
2022/11/18 02:45:41;;;;;;;;;;;;;;;;;;5093636;28;19972;-72
2022/11/18 02:48:07;;;;;;;;;;;;;;;;;;5094053;28;19936;-71
2022/11/18 02:50:33;;;;;;;;;;;;;;;;;;5094774;28;20396;-71
2022/11/18 02:52:59;;;;;;;;;;;;;;;;;;5082454;28;20018;-71
2022/11/18 02:55:25;;;;;;;;;;;;;;;;;;5094231;28;19920;-71
2022/11/18 02:57:51;;;;;;;;;;;;;;;;;;5110932;28;20411;-71
2022/11/18 03:00:16;;;;;;;;;;;;;;;;;;5090638;28;19928;-71
2022/11/18 03:02:42;;;;;;;;;;;;;;;;;;5076914;28;19927;-71
2022/11/18 03:05:08;;;;;;;;;;;;;;;;;;5092246;28;20374;-71
2022/11/18 03:07:34;;;;;;;;;;;;;;;;;;5092987;28;19920;-70
2022/11/18 03:10:00;;;;;;;;;;;;;;;;;;5095352;28;19928;-71
2022/11/18 03:12:26;;;;;;;;;;;;;;;;;;5089548;28;19927;-70
2022/11/18 03:14:52;;;;;;;;;;;;;;;;;;5092439;28;19959;-73
2022/11/18 03:17:18;;;;;;;;;;;;;;;;;;5076142;28;19955;-71
2022/11/18 03:19:44;;;;;;;;;;;;;;;;;;5092095;28;19964;-71
2022/11/18 03:22:09;;;;;;;;;;;;;;;;;;5094824;28;19924;-71
2022/11/18 03:24:35;;;;;;;;;;;;;;;;;;5091925;28;19920;-71
2022/11/18 03:27:01;;;;;;;;;;;;;;;;;;5093142;28;19920;-70
2022/11/18 03:29:27;;;;;;;;;;;;;;;;;;5092628;28;19962;-71
2022/11/18 03:31:53;;;;;;;;;;;;;;;;;;5092470;28;19920;-72
2022/11/18 03:34:19;;;;;;;;;;;;;;;;;;5075028;28;19920;-71
2022/11/18 03:36:45;;;;;;;;;;;;;;;;;;5074791;28;19927;-70
2022/11/18 03:39:11;;;;;;;;;;;;;;;;;;5092903;28;19920;-71
2022/11/18 03:41:37;;;;;;;;;;;;;;;;;;5091877;28;19921;-71
2022/11/18 03:44:03;;;;;;;;;;;;;;;;;;5092130;28;20300;-71
2022/11/18 03:46:28;;;;;;;;;;;;;;;;;;5095453;28;19927;-71
2022/11/18 03:48:54;;;;;;;;;;;;;;;;;;5082080;28;19927;-71
2022/11/18 03:51:20;;;;;;;;;;;;;;;;;;5092815;28;19950;-71
2022/11/18 03:53:46;;;;;;;;;;;;;;;;;;5092571;28;19920;-71
2022/11/18 03:56:12;;;;;;;;;;;;;;;;;;5091546;28;20309;-71
2022/11/18 03:58:38;;;;;;;;;;;;;;;;;;5106208;28;19920;-70
2022/11/18 04:01:04;;;;;;;;;;;;;;;;;;5075407;28;20033;-71
2022/11/18 04:03:30;;;;;;;;;;;;;;;;;;5092347;28;19970;-70
2022/11/18 04:05:56;;;;;;;;;;;;;;;;;;5090616;28;19951;-70
2022/11/18 04:08:22;;;;;;;;;;;;;;;;;;5092664;28;20018;-71
2022/11/18 04:10:47;;;;;;;;;;;;;;;;;;5075116;28;19970;-71
2022/11/18 04:13:13;;;;;;;;;;;;;;;;;;5091439;28;19920;-71
2022/11/18 04:15:39;;;;;;;;;;;;;;;;;;5091627;28;20444;-72
2022/11/18 04:18:05;;;;;;;;;;;;;;;;;;5065114;28;19920;-71
2022/11/18 04:20:32;;;;;;;;;;;;;;;;;;5075253;28;20377;-71
2022/11/18 04:22:58;;;;;;;;;;;;;;;;;;5096301;28;19943;-71
2022/11/18 04:25:24;;;;;;;;;;;;;;;;;;5091128;28;19920;-72
2022/11/18 04:27:50;;;;;;;;;;;;;;;;;;5097887;28;19924;-71
2022/11/18 04:30:16;;;;;;;;;;;;;;;;;;5096241;28;19924;-71
2022/11/18 04:32:42;;;;;;;;;;;;;;;;;;5095321;28;19924;-71
2022/11/18 04:35:07;;;;;;;;;;;;;;;;;;5091421;28;19972;-71
2022/11/18 04:37:33;;;;;;;;;;;;;;;;;;5092907;28;19981;-71
2022/11/18 04:39:59;;;;;;;;;;;;;;;;;;5075031;28;19920;-71
2022/11/18 04:42:25;;;;;;;;;;;;;;;;;;5092813;28;20034;-71
2022/11/18 04:44:51;;;;;;;;;;;;;;;;;;5090392;28;19920;-70
2022/11/18 04:47:17;;;;;;;;;;;;;;;;;;5058175;28;19920;-71
2022/11/18 04:49:43;;;;;;;;;;;;;;;;;;5090887;28;20019;-71
2022/11/18 04:52:09;;;;;;;;;;;;;;;;;;5091747;28;20343;-71
2022/11/18 04:54:35;;;;;;;;;;;;;;;;;;5090965;28;19920;-71
2022/11/18 04:57:00;;;;;;;;;;;;;;;;;;5074797;28;19927;-71
2022/11/18 04:59:27;;;;;;;;;;;;;;;;;;5091690;28;19926;-71
2022/11/18 05:01:53;;;;;;;;;;;;;;;;;;5092397;28;20399;-71
2022/11/18 05:04:18;;;;;;;;;;;;;;;;;;5074262;28;19975;-71
2022/11/18 05:06:44;;;;;;;;;;;;;;;;;;5089002;28;19927;-71
2022/11/18 05:09:10;;;;;;;;;;;;;;;;;;5092840;28;19931;-71
2022/11/18 05:14:21;;;;;;;;;;;;;;;;;;5092125;28;19919;-72
2022/11/18 05:16:47;;;;;;;;;;;;;;;;;;5091930;28;20385;-71
2022/11/18 05:19:13;;;;;;;;;;;;;;;;;;5092719;28;19920;-71
2022/11/18 05:21:39;;;;;;;;;;;;;;;;;;5092944;28;19920;-71
2022/11/18 05:24:04;;;;;;;;;;;;;;;;;;5090455;28;19924;-71
2022/11/18 05:26:31;;;;;;;;;;;;;;;;;;5076448;28;19920;-71
2022/11/18 05:28:56;;;;;;;;;;;;;;;;;;5095235;28;20003;-71
2022/11/18 05:31:22;;;;;;;;;;;;;;;;;;5103837;28;19928;-72
2022/11/18 05:33:48;;;;;;;;;;;;;;;;;;5090592;28;19924;-71
2022/11/18 05:36:14;;;;;;;;;;;;;;;;;;5091508;28;19969;-71
2022/11/18 05:38:40;;;;;;;;;;;;;;;;;;5090747;28;20405;-70
2022/11/18 05:41:06;;;;;;;;;;;;;;;;;;5093969;28;19926;-73
2022/11/18 05:43:32;;;;;;;;;;;;;;;;;;5089496;28;19923;-72
2022/11/18 05:45:58;;;;;;;;;;;;;;;;;;5073584;28;19920;-72
2022/11/18 05:48:24;;;;;;;;;;;;;;;;;;5057689;28;20405;-72
2022/11/18 05:50:49;;;;;;;;;;;;;;;;;;5074855;28;19935;-72
2022/11/18 05:53:15;;;;;;;;;;;;;;;;;;5090834;28;19927;-71
2022/11/18 05:55:41;;;;;;;;;;;;;;;;;;5089390;28;19920;-71
2022/11/18 05:58:07;;;;;;;;;;;;;;;;;;5090656;28;19927;-71
2022/11/18 06:00:33;;;;;;;;;;;;;;;;;;5090459;28;20466;-70
2022/11/18 06:02:59;;;;;;;;;;;;;;;;;;5089776;28;19970;-72
2022/11/18 06:05:25;;;;;;;;;;;;;;;;;;5089541;28;19972;-72
2022/11/18 06:07:51;;;;;;;;;;;;;;;;;;5090495;28;20002;-72
2022/11/18 06:10:17;;;;;;;;;;;;;;;;;;5090365;28;19928;-72
2022/11/18 06:12:42;;;;;;;;;;;;;;;;;;5090781;28;20400;-70
2022/11/18 06:15:08;;;;;;;;;;;;;;;;;;5083192;28;19921;-70
2022/11/18 06:17:34;;;;;;;;;;;;;;;;;;5075592;28;19920;-70
2022/11/18 06:20:00;;;;;;;;;;;;;;;;;;5092627;28;19982;-70
2022/11/18 06:22:26;;;;;;;;;;;;;;;;;;5091795;28;19921;-72
2022/11/18 06:24:52;;;;;;;;;;;;;;;;;;5076472;28;20297;-70
2022/11/18 06:27:18;;;;;;;;;;;;;;;;;;5093467;28;19920;-70
2022/11/18 06:29:44;;;;;;;;;;;;;;;;;;5094225;28;19949;-71
2022/11/18 06:32:10;;;;;;;;;;;;;;;;;;5095391;28;19969;-71
2022/11/18 06:34:35;;;;;;;;;;;;;;;;;;5076838;28;19973;-72
2022/11/18 06:37:01;;;;;;;;;;;;;;;;;;5095647;28;19927;-72
2022/11/18 06:39:28;;;;;;;;;;;;;;;;;;5094867;28;20293;-73
2022/11/18 06:41:54;;;;;;;;;;;;;;;;;;5079998;28;19999;-72
2022/11/18 06:44:20;;;;;;;;;;;;;;;;;;5100991;28;19978;-72
2022/11/18 06:46:55;;;;;;;;;;;;;;;;;;5100792;28;19926;-73
2022/11/18 06:49:21;;;;;;;;;;;;;;;;;;5101842;28;20381;-72
2022/11/18 06:51:47;;;;;;;;;;;;;;;;;;5076945;28;19920;-73
2022/11/18 06:54:13;;;;;;;;;;;;;;;;;;5093911;28;20419;-72
2022/11/18 06:56:39;;;;;;;;;;;;;;;;;;5093714;28;19926;-72
2022/11/18 06:59:04;;;;;;;;;;;;;;;;;;5094762;28;19973;-73
2022/11/18 07:01:30;;;;;;;;;;;;;;;;;;5085504;28;19973;-73
2022/11/18 07:03:56;;;;;;;;;;;;;;;;;;5084963;28;20350;-73
2022/11/18 07:06:25;;;;;;;;;;;;;;;;;;5096672;28;19920;-73
2022/11/18 07:08:54;;;;;;;;;;;;;;;;;;5095316;28;19925;-75
2022/11/18 07:11:20;;;;;;;;;;;;;;;;;;5080577;28;19931;-73
2022/11/18 07:13:46;;;;;;;;;;;;;;;;;;5090558;28;19928;-73
2022/11/18 07:16:12;;;;;;;;;;;;;;;;;;5074510;28;20381;-73
2022/11/18 07:18:38;;;;;;;;;;;;;;;;;;5058464;28;19927;-73
2022/11/18 07:21:04;;;;;;;;;;;;;;;;;;5090770;28;19977;-74
2022/11/18 07:23:30;;;;;;;;;;;;;;;;;;5089493;28;19926;-73
2022/11/18 07:25:55;;;;;;;;;;;;;;;;;;5051312;28;19931;-73
2022/11/18 07:28:21;;;;;;;;;;;;;;;;;;5071790;28;19931;-74
2022/11/18 07:30:47;;;;;;;;;;;;;;;;;;5068403;28;19928;-73
2022/11/18 07:33:13;;;;;;;;;;;;;;;;;;5088863;28;19924;-74
2022/11/18 07:35:39;;;;;;;;;;;;;;;;;;5071074;28;19963;-73
2022/11/18 07:38:05;;;;;;;;;;;;;;;;;;5055376;28;19979;-73
2022/11/18 07:40:31;;;;;;;;;;;;;;;;;;5055917;28;20032;-73
2022/11/18 07:42:57;;;;;;;;;;;;;;;;;;5084687;28;19973;-73
2022/11/18 07:45:23;;;;;;;;;;;;;;;;;;5090674;28;20398;-73
2022/11/18 07:47:49;;;;;;;;;;;;;;;;;;5087979;28;19920;-73
2022/11/18 07:50:15;;;;;;;;;;;;;;;;;;5093144;28;19931;-73
2022/11/18 07:52:40;;;;;;;;;;;;;;;;;;5093617;28;20389;-73
2022/11/18 07:55:06;;;;;;;;;;;;;;;;;;5084707;28;19928;-73
2022/11/18 07:57:32;;;;;;;;;;;;;;;;;;5092019;28;19920;-72
2022/11/18 07:59:58;;;;;;;;;;;;;;;;;;5108987;28;20453;-73
2022/11/18 08:02:24;;;;;;;;;;;;;;;;;;5075755;28;20378;-73
2022/11/18 08:04:50;;;;;;;;;;;;;;;;;;5071023;28;19931;-74
2022/11/18 08:07:16;;;;;;;;;;;;;;;;;;5074481;28;19928;-73
2022/11/18 08:09:42;;;;;;;;;;;;;;;;;;5077188;28;19956;-73
2022/11/18 08:12:08;;;;;;;;;;;;;;;;;;5081844;28;19920;-73
2022/11/18 08:14:33;;;;;;;;;;;;;;;;;;5092119;28;20381;-73
2022/11/18 08:16:59;;;;;;;;;;;;;;;;;;5092712;28;20066;-73
2022/11/18 08:19:25;;;;;;;;;;;;;;;;;;5091698;28;19963;-73
2022/11/18 08:21:51;;;;;;;;;;;;;;;;;;5094207;28;20018;-73
2022/11/18 08:24:17;;;;;;;;;;;;;;;;;;5087684;28;19920;-73
2022/11/18 08:26:44;;;;;;;;;;;;;;;;;;5076770;28;19928;-73
2022/11/18 08:29:10;;;;;;;;;;;;;;;;;;5072217;28;19978;-73
2022/11/18 08:31:35;;;;;;;;;;;;;;;;;;5092074;28;19967;-73
2022/11/18 08:34:01;;;;;;;;;;;;;;;;;;5081424;28;20010;-73
2022/11/18 08:36:27;;;;;;;;;;;;;;;;;;5076083;28;19920;-73
2022/11/18 08:38:53;;;;;;;;;;;;;;;;;;5093256;28;19927;-73
2022/11/18 08:41:19;;;;;;;;;;;;;;;;;;5082511;28;19946;-73
2022/11/18 08:43:45;;;;;;;;;;;;;;;;;;5091601;28;20312;-76
2022/11/18 08:46:11;;;;;;;;;;;;;;;;;;5092687;28;19950;-73
2022/11/18 08:48:37;;;;;;;;;;;;;;;;;;5093049;28;19931;-73
2022/11/18 08:51:03;;;;;;;;;;;;;;;;;;5073519;28;19924;-74
2022/11/18 08:53:29;;;;;;;;;;;;;;;;;;5076194;28;20328;-73
2022/11/18 08:55:55;;;;;;;;;;;;;;;;;;5075449;28;19927;-73
2022/11/18 08:58:21;;;;;;;;;;;;;;;;;;5092673;28;19926;-74
2022/11/18 09:00:47;;;;;;;;;;;;;;;;;;5073938;28;20018;-73
2022/11/18 09:03:13;;;;;;;;;;;;;;;;;;5103180;28;20300;-73
2022/11/18 09:05:39;;;;;;;;;;;;;;;;;;5094898;28;19927;-73
2022/11/18 09:08:05;;;;;;;;;;;;;;;;;;5100917;28;20305;-72
2022/11/18 09:10:33;;;;;;;;;;;;;;;;;;5082938;28;19931;-73
2022/11/18 09:12:59;;;;;;;;;;;;;;;;;;5077014;28;19924;-73
2022/11/18 09:15:25;;;;;;;;;;;;;;;;;;5074946;28;20400;-74
2022/11/18 09:17:51;;;;;;;;;;;;;;;;;;5074629;28;19920;-73
2022/11/18 09:20:17;;;;;;;;;;;;;;;;;;5074703;28;19920;-74
2022/11/18 09:22:43;;;;;;;;;;;;;;;;;;5074333;28;19990;-74
2022/11/18 09:25:09;;;;;;;;;;;;;;;;;;5092134;28;19973;-74
2022/11/18 09:27:35;;;;;;;;;;;;;;;;;;5074812;28;20336;-74
2022/11/18 09:30:00;;;;;;;;;;;;;;;;;;5074435;28;20408;-74
2022/11/18 09:32:26;;;;;;;;;;;;;;;;;;5081117;28;19972;-73
2022/11/18 09:34:52;;;;;;;;;;;;;;;;;;5111904;28;19964;-72
2022/11/18 09:37:18;;;;;;;;;;;;;;;;;;5094612;28;20300;-73
2022/11/18 09:39:44;;;;;;;;;;;;;;;;;;5112837;28;19919;-74
2022/11/18 09:42:11;;;;;;;;;;;;;;;;;;5112837;28;19931;-74
2022/11/18 09:44:37;;;;;;;;;;;;;;;;;;5093596;28;19966;-74
2022/11/18 09:47:03;;;;;;;;;;;;;;;;;;5075756;28;20392;-74
2022/11/18 09:49:29;;;;;;;;;;;;;;;;;;5094305;28;19924;-74
2022/11/18 09:51:54;;;;;;;;;;;;;;;;;;5094851;28;19946;-74
2022/11/18 09:54:20;;;;;;;;;;;;;;;;;;5081250;28;19924;-73
2022/11/18 09:56:47;;;;;;;;;;;;;;;;;;5098414;28;19970;-74
2022/11/18 09:59:13;;;;;;;;;;;;;;;;;;5098718;28;20323;-74
2022/11/18 10:01:39;;;;;;;;;;;;;;;;;;5081948;28;20415;-74
2022/11/18 10:04:05;;;;;;;;;;;;;;;;;;5077646;28;19962;-74
2022/11/18 10:06:31;;;;;;;;;;;;;;;;;;5078103;28;19920;-74
2022/11/18 10:08:57;;;;;;;;;;;;;;;;;;5096257;28;20485;-74
2022/11/18 10:11:23;;;;;;;;;;;;;;;;;;5094813;28;19973;-74
2022/11/18 10:13:49;;;;;;;;;;;;;;;;;;5077797;28;19920;-73
2022/11/18 10:16:15;;;;;;;;;;;;;;;;;;5077671;28;19924;-74
2022/11/18 10:18:40;;;;;;;;;;;;;;;;;;5078290;28;20399;-74
2022/11/18 10:21:06;;;;;;;;;;;;;;;;;;5061184;28;20393;-74
2022/11/18 10:23:32;;;;;;;;;;;;;;;;;;5077767;28;19970;-74
2022/11/18 10:25:58;;;;;;;;;;;;;;;;;;5077253;28;19975;-74
2022/11/18 10:28:24;;;;;;;;;;;;;;;;;;5077795;28;19920;-74
2022/11/18 10:30:50;;;;;;;;;;;;;;;;;;5077428;28;19928;-74
2022/11/18 10:33:16;;;;;;;;;;;;;;;;;;5077678;28;19945;-74
2022/11/18 10:35:42;;;;;;;;;;;;;;;;;;5077668;28;19928;-74
2022/11/18 10:38:08;;;;;;;;;;;;;;;;;;5116126;28;19924;-74
2022/11/18 10:40:34;;;;;;;;;;;;;;;;;;5097791;28;20408;-74
2022/11/18 10:42:59;;;;;;;;;;;;;;;;;;5098075;28;19981;-74
2022/11/18 10:45:25;;;;;;;;;;;;;;;;;;5096451;28;19926;-74
2022/11/18 10:47:51;;;;;;;;;;;;;;;;;;5109867;28;19978;-73
2022/11/18 10:50:20;;;;;;;;;;;;;;;;;;5076896;28;19935;-74
2022/11/18 10:52:46;;;;;;;;;;;;;;;;;;5094224;28;20377;-73
2022/11/18 10:55:12;;;;;;;;;;;;;;;;;;5092794;28;19919;-74
2022/11/18 10:57:38;;;;;;;;;;;;;;;;;;5097398;28;19920;-74
2022/11/18 11:00:04;;;;;;;;;;;;;;;;;;5079481;28;20066;-74
2022/11/18 11:02:30;;;;;;;;;;;;;;;;;;5077030;28;19924;-74
2022/11/18 11:04:56;;;;;;;;;;;;;;;;;;5085932;28;20277;-74
2022/11/18 11:07:21;;;;;;;;;;;;;;;;;;5097638;28;19958;-74
2022/11/18 11:09:47;;;;;;;;;;;;;;;;;;5097373;28;19928;-74
2022/11/18 11:12:13;;;;;;;;;;;;;;;;;;5077668;28;19924;-74
2022/11/18 11:14:39;;;;;;;;;;;;;;;;;;5081557;28;19923;-74
2022/11/18 11:17:05;;;;;;;;;;;;;;;;;;5115087;28;20427;-77
2022/11/18 11:19:31;;;;;;;;;;;;;;;;;;5080034;28;19975;-74
2022/11/18 11:21:57;;;;;;;;;;;;;;;;;;5078561;28;20325;-73
2022/11/18 11:24:23;;;;;;;;;;;;;;;;;;5097256;28;19920;-74
2022/11/18 11:26:49;;;;;;;;;;;;;;;;;;5081895;28;19924;-74
2022/11/18 11:29:15;;;;;;;;;;;;;;;;;;5081396;28;19970;-74
2022/11/18 11:31:40;;;;;;;;;;;;;;;;;;5076578;28;20301;-73
2022/11/18 11:34:06;;;;;;;;;;;;;;;;;;5076209;28;20013;-74
2022/11/18 11:36:32;;;;;;;;;;;;;;;;;;5093624;28;19924;-73
2022/11/18 11:38:58;;;;;;;;;;;;;;;;;;5093687;28;20432;-74
2022/11/18 11:41:24;;;;;;;;;;;;;;;;;;5093999;28;19927;-74
2022/11/18 11:43:50;;;;;;;;;;;;;;;;;;5094183;28;20292;-73
2022/11/18 11:46:16;;;;;;;;;;;;;;;;;;5094406;28;19927;-74
2022/11/18 11:48:42;;;;;;;;;;;;;;;;;;5094588;28;19920;-74
2022/11/18 11:51:08;;;;;;;;;;;;;;;;;;5094712;28;19924;-74
2022/11/18 11:53:34;;;;;;;;;;;;;;;;;;5094219;28;19927;-74
2022/11/18 11:56:00;;;;;;;;;;;;;;;;;;5074928;28;20072;-73
2022/11/18 11:58:26;;;;;;;;;;;;;;;;;;5075856;28;19985;-74
2022/11/18 12:00:51;;;;;;;;;;;;;;;;;;5094488;28;19920;-74
2022/11/18 12:03:17;;;;;;;;;;;;;;;;;;5075630;28;19924;-73
2022/11/18 12:05:43;;;;;;;;;;;;;;;;;;5093035;28;19926;-74
2022/11/18 12:08:09;;;;;;;;;;;;;;;;;;5078015;28;19920;-73
2022/11/18 12:10:36;;;;;;;;;;;;;;;;;;5096004;28;20023;-74
2022/11/18 12:13:01;;;;;;;;;;;;;;;;;;5079126;28;19943;-73
2022/11/18 12:15:27;;;;;;;;;;;;;;;;;;5098718;28;20416;-70
2022/11/18 12:17:53;;;;;;;;;;;;;;;;;;5109836;28;20301;-74
2022/11/18 12:20:19;;;;;;;;;;;;;;;;;;5076750;28;19921;-75
2022/11/18 12:22:45;;;;;;;;;;;;;;;;;;5089974;28;19955;-75
2022/11/18 12:25:11;;;;;;;;;;;;;;;;;;5058503;28;19927;-74
2022/11/18 12:27:38;;;;;;;;;;;;;;;;;;5075748;28;20011;-73
2022/11/18 12:30:04;;;;;;;;;;;;;;;;;;5075795;28;19970;-73
2022/11/18 12:32:30;;;;;;;;;;;;;;;;;;5076001;28;19924;-73
2022/11/18 12:34:56;;;;;;;;;;;;;;;;;;5059062;28;19924;-72
2022/11/18 12:37:24;;;;;;;;;;;;;;;;;;5092663;28;20293;-71
2022/11/18 12:39:49;;;;;;;;;;;;;;;;;;5107999;28;19999;-72
2022/11/18 12:45:00;;;;;;;;;;;;;;;;;;5073834;28;20292;-72
2022/11/18 12:47:27;;;;;;;;;;;;;;;;;;5069662;28;20014;-72
2022/11/18 12:49:58;;;;;;;;;;;7.60;99.90;;;;;;5066174;28;19977;-72
2022/11/18 12:52:30;;;;;;;;;;;7.50;99.90;;;;;;5085575;28;20022;-72
2022/11/18 12:54:57;;;;;;;;;;;7.60;99.90;;;;;;5072212;28;20301;-72
2022/11/18 12:57:27;;;;;;;;;;;7.50;99.90;;;;;;5074405;28;19920;-72
2022/11/18 12:59:53;;;;;;;;;;;7.60;99.90;;;;;;5080732;28;20404;-72
2022/11/18 13:02:20;;;;;;;;;;;;;;;;;;5088627;28;19924;-72
2022/11/18 13:05:01;;;;;;;;;;;7.50;99.90;;;;;;5052601;28;19932;-72
2022/11/18 13:10:18;;;;;;;;;;;7.30;99.90;;;;;;5077793;28;19927;-72
2022/11/18 13:12:43;;;;;;;;;;;7.40;99.90;;;;;;5089563;28;19927;-72
2022/11/18 13:17:57;;;;;;;;;;;;;;;;;;5080461;28;19920;-72
2022/11/18 13:20:23;;;;;;;;;;;;;;;;;;5070862;28;19920;-71
2022/11/18 13:25:33;;;;;;;;;;;;;;;;;;5073036;28;19920;-72
2022/11/18 13:27:59;;;;;;;;;;;;;;;;;;5108416;28;19920;-72
2022/11/18 13:30:25;;;;;;;;;;;;;;;;;;5081758;28;19931;-72
2022/11/18 13:32:51;;;;;;;;;;;;;;;;;;5073194;28;19920;-71
2022/11/18 13:35:17;;;;;;;;;;;;;;;;;;5072546;28;20001;-71
2022/11/18 13:37:43;;;;;;;;;;;;;;;;;;5074071;28;20341;-71
2022/11/18 13:40:09;;;;;;;;;;;;;;;;;;5057286;28;19920;-71
2022/11/18 13:42:35;;;;;;;;;;;;;;;;;;5085786;28;19924;-71
2022/11/18 13:45:01;;;;;;;;;;;;;;;;;;5087675;28;19946;-71
2022/11/18 13:47:27;;;;;;;;;;;;;;;;;;5080033;28;19923;-71
2022/11/18 13:49:52;;;;;;;;;;;;;;;;;;5077183;28;20412;-71
2022/11/18 13:52:18;;;;;;;;;;;;;;;;;;5074154;28;19920;-71
2022/11/18 13:54:44;;;;;;;;;;;;;;;;;;5076237;28;19920;-71
2022/11/18 13:57:10;;;;;;;;;;;;;;;;;;5073497;28;20305;-71
2022/11/18 13:59:36;;;;;;;;;;;;;;;;;;5090140;28;19967;-71
2022/11/18 14:02:01;;;;;;;;;;;7.20;99.90;;;;;;5077970;28;20076;-71
2022/11/18 14:04:27;;;;;;;;;;;;;;;;;;5072492;28;19973;-72
2022/11/18 14:06:53;;;;;;;;;;;;;;;;;;5089192;28;19927;-71
2022/11/18 14:09:19;;;;;;;;;;;;;;;;;;5090356;28;20049;-71
2022/11/18 14:11:45;;;;;;;;;;;;;;;;;;5089637;28;19920;-71
2022/11/18 14:14:13;;;;;;;;;;;;;;;;;;5089312;28;20566;-72
2022/11/18 14:16:38;;;;;;;;;;;;;;;;;;5084734;28;19920;-71
2022/11/18 14:19:04;;;;;;;;;;;;;;;;;;5078075;28;20297;-71
2022/11/18 14:21:30;;;;;;;;;;;;;;;;;;5078895;28;19931;-71
2022/11/18 14:23:56;;;;;;;;;;;;;;;;;;5072658;28;20385;-71
2022/11/18 14:26:22;;;;;;;;;;;;;;;;;;5086741;28;19920;-71
2022/11/18 14:28:48;;;;;;;;;;;;;;;;;;5091060;28;19924;-71
2022/11/18 14:31:16;;;;;;;;;;;;;;;;;;5091735;28;19932;-71
2022/11/18 14:33:41;;;;;;;;;;;;;;;;;;5088092;28;19920;-71
2022/11/18 14:36:07;;;;;;;;;;;6.80;99.90;;;;;;5090827;28;19926;-71
2022/11/18 14:38:32;;;;;;;;;;;6.80;99.90;;;;;;5074096;28;19920;-71
2022/11/18 14:41:02;;;;;;;;;;;6.80;99.90;;;;;;5096791;28;19942;-72
2022/11/18 14:43:28;;;;;;;;;;;6.60;99.90;;;;;;5067597;28;19920;-74
2022/11/18 14:45:58;;;;;;;;;;;6.70;99.90;;;;;;5076071;28;19920;-71
2022/11/18 14:48:24;;;;;;;;;;;6.60;99.90;;;;;;5080185;28;19942;-71
2022/11/18 14:50:51;;;;;;;;;;;;;;;;;;5080973;28;19932;-71
2022/11/18 14:53:17;;;;;;;;;;;6.50;99.90;;;;;;5075764;28;19920;-70
2022/11/18 14:55:48;;;;;;;;;;;6.50;99.90;;;;;;5075311;28;20050;-71
2022/11/18 14:58:14;;;;;;;;;;;6.50;99.90;;;;;;5077971;28;19962;-70
2022/11/18 15:00:40;;;;;;;;;;;6.40;99.90;;;;;;5078599;28;19994;-70
2022/11/18 15:03:05;;;;;;;;;;;6.40;99.90;;;;;;5098782;28;19928;-71
2022/11/18 15:05:31;;;;;;;;;;;6.40;99.90;;;;;;5071590;28;19950;-70
2022/11/18 15:07:56;;;;;;;;;;;6.40;99.90;;;;;;5090085;28;19968;-70
2022/11/18 15:10:22;;;;;;;;;;;6.30;99.90;;;;;;5110036;28;20020;-71
2022/11/18 15:12:47;;;;;;;;;;;6.40;99.90;;;;;;5093892;28;19930;-71
2022/11/18 15:15:13;;;;;;;;;;;;;;;;;;5077113;28;19921;-71
2022/11/18 15:17:39;;;;;;;;;;;;;;;;;;5093695;28;20015;-71
2022/11/18 15:20:05;;;;;;;;;;;6.30;99.90;;;;;;5093025;28;19924;-71
2022/11/18 15:22:31;;;;;;;;;;;6.30;99.90;;;;;;5093898;28;19924;-71
2022/11/18 15:24:57;;;;;;;;;;;6.10;99.90;;;;;;5094398;28;19920;-71
2022/11/18 15:27:22;;;;;;;;;;;6.00;99.90;;;;;;5096049;28;20019;-71
2022/11/18 15:29:49;;;;;;;;;;;;;;;;;;5085179;28;19924;-71
2022/11/18 15:32:15;;;;;;;;;;;;;;;;;;5114815;28;20351;-71
2022/11/18 15:34:41;;;;;;;;;;;;;;;;;;5091677;28;20027;-71
2022/11/18 15:37:07;;;;;;;;;;;;;;;;;;5093451;28;20015;-70
2022/11/18 15:39:34;;;;;;;;;;;;;;;;;;5094167;28;19920;-70
2022/11/18 15:41:59;;;;;;;;;;;6.10;99.90;;;;;;5093172;28;20002;-71
2022/11/18 15:44:25;;;;;;;;;;;6.10;99.90;;;;;;5092296;28;20015;-71
2022/11/18 15:46:50;;;;;;;;;;;6.00;99.90;;;;;;5083422;28;20421;-71
2022/11/18 15:49:16;;;;;;;;;;;6.00;99.90;;;;;;5074949;28;19942;-70
2022/11/18 15:51:42;;;;;;;;;;;6.30;99.90;;;;;;5058916;28;19963;-71
2022/11/18 15:54:07;;;;;;;;;;;5.70;99.90;;;;;;5074986;28;19982;-70
2022/11/18 15:56:33;;;;;;;;;;;5.80;99.90;;;;;;5091925;28;19924;-71
2022/11/18 15:59:03;;;;;;;;;;;5.80;99.90;;;;;;5092530;28;19927;-71
2022/11/18 16:01:30;;;;;;;;;;;5.90;99.90;;;;;;5094476;28;19920;-70
2022/11/18 16:03:55;;;;;;;;;;;5.80;99.90;;;;;;5100775;28;19920;-70
2022/11/18 16:06:21;;;;;;;;;;;5.70;99.90;;;;;;5103249;28;19920;-71
2022/11/18 16:08:47;;;;;;;;;;;5.80;99.90;;;;;;5082580;28;19920;-70
2022/11/18 16:13:57;;;;;;;;;;;;;;;;;;5079185;28;20017;-71
2022/11/18 16:16:24;;;;;;;;;;;;;;;;;;5073013;28;19971;-71
2022/11/18 16:18:50;;;;;;;;;;;;;;;;;;5074467;28;19935;-70
2022/11/18 16:21:15;;;;;;;;;;;5.80;99.90;;;;;;5072744;28;19920;-71
2022/11/18 16:23:41;;;;;;;;;;;5.70;99.90;;;;;;5073610;28;19920;-71
2022/11/18 16:26:06;;;;;;;;;;;5.50;99.90;;;;;;5091549;28;19997;-71
2022/11/18 16:28:32;;;;;;;;;;;5.60;99.90;;;;;;5074676;28;19975;-71
2022/11/18 16:33:42;;;;;;;;;;;5.50;99.90;;;;;;5093289;28;19924;-71
2022/11/18 16:36:07;;;;;;;;;;;5.70;99.90;;;;;;5090561;28;20345;-71
2022/11/18 16:38:33;;;;;;;;;;;5.70;99.90;;;;;;5091451;28;19920;-71
2022/11/18 16:40:58;;;;;;;;;;;5.60;99.90;;;;;;5069004;28;19942;-71
2022/11/18 16:43:24;;;;;;;;;;;5.70;99.90;;;;;;5074674;28;19977;-71
2022/11/18 16:45:50;;;;;;;;;;;5.60;99.90;;;;;;5073655;28;19928;-70
2022/11/18 16:48:16;;;;;;;;;;;5.70;99.90;;;;;;5092984;28;19920;-71